Time;durP1;ratioP1;P1;durP2;ratioP2;P2;SDS_P1;SDS_P2;PMS_P1;PMS_P2;Temp;Humidity;BMP_temperature;BMP_pressure;BME280_temperature;BME280_humidity;BME280_pressure;Samples;Min_cycle;Max_cycle;Signal;HPM_P1;HPM_P2
2021/11/26 00:00:47;;;;;;;38.40;22.10;;;;;;;;;;5039315;28;20222;-76
2021/11/26 00:03:15;;;;;;;38.13;21.50;;;;;;;;;;5056049;28;20760;-75
2021/11/26 00:05:43;;;;;;;37.87;21.57;;;;;;;;;;5056367;28;20217;-75
2021/11/26 00:08:11;;;;;;;36.00;20.97;;;;;;;;;;5038842;28;20227;-76
2021/11/26 00:10:37;;;;;;;37.23;22.87;;;;;;;;;;5049227;28;20293;-76
2021/11/26 00:13:05;;;;;;;39.87;22.17;;;;;;;;;;5056089;28;20785;-76
2021/11/26 00:18:05;;;;;;;39.13;23.30;;;;;;;;;;5055867;28;20230;-75
2021/11/26 00:20:31;;;;;;;41.97;23.57;;;;;;;;;;5055223;28;20233;-76
2021/11/26 00:22:57;;;;;;;37.70;21.70;;;;;;;;;;5027707;28;20250;-75
2021/11/26 00:25:23;;;;;;;37.03;21.90;;;;;;;;;;5053083;28;20268;-75
2021/11/26 00:27:48;;;;;;;39.47;21.70;;;;;;;;;;5039138;28;20277;-75
2021/11/26 00:30:19;;;;;;;37.37;21.03;;;;;;;;;;5038618;28;20301;-75
2021/11/26 00:32:46;;;;;;;35.53;22.03;;;;;;;;;;5072114;28;20268;-75
2021/11/26 00:35:14;;;;;;;36.60;21.73;;;;;;;;;;5034805;28;20222;-75
2021/11/26 00:37:42;;;;;;;35.93;20.70;;;;;;;;;;5022161;28;20231;-76
2021/11/26 00:40:10;;;;;;;33.90;20.00;;;;;;;;;;5038682;28;20219;-76
2021/11/26 00:42:41;;;;;;;34.37;21.03;;;;;;;;;;5018941;28;20219;-75
2021/11/26 00:45:13;;;;;;;33.27;18.97;;;;;;;;;;5057475;28;20223;-75
2021/11/26 00:47:39;;;;;;;34.27;20.17;;;;;;;;;;5055594;28;20257;-75
2021/11/26 00:50:06;;;;;;;33.00;20.60;;;;;;;;;;5020238;28;20261;-75
2021/11/26 00:52:32;;;;;;;36.43;21.17;;;;;;;;;;5070731;28;20294;-76
2021/11/26 00:55:00;;;;;;;32.00;19.93;;;;;;;;;;5043152;28;20668;-75
2021/11/26 00:57:25;;;;;;;33.83;20.87;;;;;;;;;;5070123;28;20688;-76
2021/11/26 00:59:51;;;;;;;39.20;20.53;;;;;;;;;;5038214;28;20221;-75
2021/11/26 01:02:16;;;;;;;37.03;21.07;;;;;;;;;;5071517;28;20615;-75
2021/11/26 01:04:44;;;;;;;32.83;19.80;;;;;;;;;;5055167;28;20217;-76
2021/11/26 01:07:12;;;;;;;35.70;20.90;;;;;;;;;;5034947;28;20255;-75
2021/11/26 01:09:38;;;;;;;30.17;18.73;;;;;;;;;;5055820;28;20297;-75
2021/11/26 01:12:08;;;;;;;37.23;20.40;;;;;;;;;;5055358;28;20221;-75
2021/11/26 01:14:36;;;;;;;34.47;19.80;;;;;;;;;;5055397;28;20226;-76
2021/11/26 01:17:02;;;;;;;31.03;18.63;;;;;;;;;;5053767;28;20653;-75
2021/11/26 01:19:30;;;;;;;35.60;19.90;;;;;;;;;;5039038;28;20226;-75
2021/11/26 01:22:02;;;;;;;29.73;19.50;;;;;;;;;;5055214;28;20214;-75
2021/11/26 01:24:30;;;;;;;29.93;19.83;;;;;;;;;;5054000;28;20272;-75
2021/11/26 01:26:59;;;;;;;34.20;19.70;;;;;;;;;;5054719;28;20222;-75
2021/11/26 01:29:27;;;;;;;31.10;19.60;;;;;;;;;;5054265;28;20210;-75
2021/11/26 01:31:53;;;;;;;33.53;20.20;;;;;;;;;;5038073;28;20225;-75
2021/11/26 01:34:18;;;;;;;35.30;19.50;;;;;;;;;;5037337;28;20230;-76
2021/11/26 01:36:48;;;;;;;33.53;19.37;;;;;;;;;;5050892;28;20212;-75
2021/11/26 01:39:14;;;;;;;35.23;19.47;;;;;;;;;;5051356;28;20231;-75
2021/11/26 01:41:43;;;;;;;28.83;17.63;;;;;;;;;;5054235;28;20233;-75
2021/11/26 01:44:09;;;;;;;31.43;19.17;;;;;;;;;;5054039;28;20226;-75
2021/11/26 01:46:44;;;;;;;29.83;19.00;;;;;;;;;;5017849;28;20223;-75
2021/11/26 01:49:13;;;;;;;31.03;18.27;;;;;;;;;;5034297;28;20229;-75
2021/11/26 01:51:41;;;;;;;34.63;19.47;;;;;;;;;;5031343;28;20223;-74
2021/11/26 01:54:07;;;;;;;33.43;19.17;;;;;;;;;;5067975;28;20611;-74
2021/11/26 01:56:33;;;;;;;33.50;19.23;;;;;;;;;;5047856;28;20223;-75
2021/11/26 01:58:59;;;;;;;30.43;17.43;;;;;;;;;;5066141;28;20243;-74
2021/11/26 02:01:24;;;;;;;32.33;17.97;;;;;;;;;;5067252;28;20222;-74
2021/11/26 02:03:52;;;;;;;32.63;18.33;;;;;;;;;;5046813;28;20234;-74
2021/11/26 02:06:20;;;;;;;30.03;18.03;;;;;;;;;;5035812;28;20227;-75
2021/11/26 02:08:48;;;;;;;32.30;19.67;;;;;;;;;;5071637;28;20235;-74
2021/11/26 02:11:13;;;;;;;31.03;19.17;;;;;;;;;;5071487;28;20313;-75
2021/11/26 02:13:39;;;;;;;32.27;19.13;;;;;;;;;;5038638;28;20211;-75
2021/11/26 02:16:08;;;;;;;35.53;20.17;;;;;;;;;;5053706;28;20234;-76
2021/11/26 02:18:43;;;;;;;37.10;19.10;;;;;;;;;;5037448;28;20276;-74
2021/11/26 02:21:09;;;;;;;32.20;18.97;;;;;;;;;;5026779;28;20276;-75
2021/11/26 02:23:34;;;;;;;30.83;18.33;;;;;;;;;;5045969;28;20594;-74
2021/11/26 02:26:02;;;;;;;31.77;18.37;;;;;;;;;;5020259;28;20223;-76
2021/11/26 02:28:28;;;;;;;32.53;18.20;;;;;;;;;;5033189;28;20293;-74
2021/11/26 02:30:53;;;;;;;34.87;18.23;;;;;;;;;;5051881;28;20869;-75
2021/11/26 02:33:22;;;;;;;34.43;18.70;;;;;;;;;;5048135;28;20227;-75
2021/11/26 02:35:51;;;;;;;32.60;19.30;;;;;;;;;;5016683;28;20289;-75
2021/11/26 02:38:17;;;;;;;29.67;18.27;;;;;;;;;;5033077;28;20717;-75
2021/11/26 02:40:46;;;;;;;31.33;18.37;;;;;;;;;;5070162;28;20248;-75
2021/11/26 02:43:14;;;;;;;30.23;18.40;;;;;;;;;;5053520;28;20228;-76
2021/11/26 02:45:40;;;;;;;32.20;19.17;;;;;;;;;;5020084;28;20218;-75
2021/11/26 02:48:08;;;;;;;35.53;18.73;;;;;;;;;;5032476;28;20227;-75
2021/11/26 02:50:47;;;;;;;31.67;19.07;;;;;;;;;;5022037;28;20214;-75
2021/11/26 02:53:15;;;;;;;35.03;19.03;;;;;;;;;;5019815;28;20222;-75
2021/11/26 02:55:43;;;;;;;36.43;19.10;;;;;;;;;;5053107;28;20221;-75
2021/11/26 02:58:11;;;;;;;31.03;18.83;;;;;;;;;;5052994;28;20231;-75
2021/11/26 03:00:38;;;;;;;33.03;19.30;;;;;;;;;;5052853;28;20222;-75
2021/11/26 03:03:07;;;;;;;36.60;20.13;;;;;;;;;;5032827;28;20218;-75
2021/11/26 03:05:35;;;;;;;33.47;19.17;;;;;;;;;;5048927;28;20222;-75
2021/11/26 03:08:04;;;;;;;37.33;21.03;;;;;;;;;;5048764;28;20602;-75
2021/11/26 03:10:34;;;;;;;35.57;20.03;;;;;;;;;;5052885;28;20215;-75
2021/11/26 03:13:07;;;;;;;34.60;18.73;;;;;;;;;;5058825;28;20214;-75
2021/11/26 03:15:38;;;;;;;34.07;20.13;;;;;;;;;;5012555;28;20214;-75
2021/11/26 03:18:06;;;;;;;33.73;20.13;;;;;;;;;;5068773;28;20238;-75
2021/11/26 03:20:36;;;;;;;37.17;20.50;;;;;;;;;;5052623;28;20727;-75
2021/11/26 03:23:02;;;;;;;32.40;19.77;;;;;;;;;;5048160;28;20302;-74
2021/11/26 03:25:28;;;;;;;35.33;19.80;;;;;;;;;;5047047;28;20715;-75
2021/11/26 03:27:55;;;;;;;34.00;19.63;;;;;;;;;;5020155;28;20227;-75
2021/11/26 03:30:21;;;;;;;35.37;19.50;;;;;;;;;;5049935;28;20227;-75
2021/11/26 03:32:49;;;;;;;30.53;19.00;;;;;;;;;;5038254;28;20214;-74
2021/11/26 03:35:18;;;;;;;40.07;20.17;;;;;;;;;;5035775;28;20222;-75
2021/11/26 03:37:46;;;;;;;31.87;19.30;;;;;;;;;;5040248;28;20215;-75
2021/11/26 03:40:15;;;;;;;33.10;19.43;;;;;;;;;;5065294;28;20218;-75
2021/11/26 03:42:43;;;;;;;37.23;20.07;;;;;;;;;;5036029;28;20214;-76
2021/11/26 03:45:09;;;;;;;36.17;19.67;;;;;;;;;;5034870;28;20215;-76
2021/11/26 03:47:35;;;;;;;34.50;19.80;;;;;;;;;;5052399;28;20219;-76
2021/11/26 03:50:01;;;;;;;31.23;18.03;;;;;;;;;;5015788;28;20234;-75
2021/11/26 03:52:26;;;;;;;34.47;19.47;;;;;;;;;;5052088;28;20245;-75
2021/11/26 03:54:52;;;;;;;31.27;18.67;;;;;;;;;;5013308;28;20222;-74
2021/11/26 03:57:17;;;;;;;35.73;19.83;;;;;;;;;;5067871;28;20233;-75
2021/11/26 03:59:47;;;;;;;33.03;18.73;;;;;;;;;;5034386;28;20211;-75
2021/11/26 04:02:13;;;;;;;30.07;17.70;;;;;;;;;;5032420;28;20219;-75
2021/11/26 04:04:41;;;;;;;34.40;18.40;;;;;;;;;;5015969;28;20569;-75
2021/11/26 04:07:09;;;;;;;31.70;18.07;;;;;;;;;;5036924;28;20247;-75
2021/11/26 04:09:35;;;;;;;31.13;18.30;;;;;;;;;;5048611;28;20227;-75
2021/11/26 04:12:03;;;;;;;30.23;18.07;;;;;;;;;;5065202;28;20234;-75
2021/11/26 04:14:31;;;;;;;32.03;18.43;;;;;;;;;;5051397;28;20230;-75
2021/11/26 04:16:59;;;;;;;27.80;17.70;;;;;;;;;;5036262;28;20250;-75
2021/11/26 04:19:27;;;;;;;33.60;18.00;;;;;;;;;;5048568;28;20217;-75
2021/11/26 04:21:55;;;;;;;35.50;17.80;;;;;;;;;;5019056;28;20280;-75
2021/11/26 04:24:21;;;;;;;28.93;17.53;;;;;;;;;;5057458;28;20824;-76
2021/11/26 04:26:52;;;;;;;30.50;18.47;;;;;;;;;;5064902;28;20223;-75
2021/11/26 04:29:22;;;;;;;33.77;18.27;;;;;;;;;;5063119;28;20222;-76
2021/11/26 04:31:50;;;;;;;34.87;18.43;;;;;;;;;;5047388;28;20218;-75
2021/11/26 04:34:18;;;;;;;36.60;19.90;;;;;;;;;;5045496;28;20407;-76
2021/11/26 04:36:48;;;;;;;30.53;16.90;;;;;;;;;;5056804;28;20238;-74
2021/11/26 04:39:14;;;;;;;31.63;17.23;;;;;;;;;;5054683;28;20222;-75
2021/11/26 04:41:39;;;;;;;33.87;17.20;;;;;;;;;;5072026;28;20207;-75
2021/11/26 04:44:05;;;;;;;32.53;18.73;;;;;;;;;;5071681;28;20219;-75
2021/11/26 04:46:31;;;;;;;34.53;18.00;;;;;;;;;;5055042;28;20219;-75
2021/11/26 04:48:59;;;;;;;34.20;17.03;;;;;;;;;;5051830;28;20219;-75
2021/11/26 04:51:24;;;;;;;35.30;18.27;;;;;;;;;;5036839;28;20216;-75
2021/11/26 04:53:50;;;;;;;30.57;17.40;;;;;;;;;;5038412;28;20235;-75
2021/11/26 04:56:16;;;;;;;32.47;18.40;;;;;;;;;;5021525;28;20263;-75
2021/11/26 04:58:42;;;;;;;33.73;18.67;;;;;;;;;;5038501;28;20309;-76
2021/11/26 05:01:07;;;;;;;31.30;17.93;;;;;;;;;;5054874;28;20215;-75
2021/11/26 05:03:33;;;;;;;31.27;17.93;;;;;;;;;;5038841;28;20684;-75
2021/11/26 05:06:01;;;;;;;31.67;18.07;;;;;;;;;;5018340;28;20232;-75
2021/11/26 05:08:29;;;;;;;33.73;18.73;;;;;;;;;;5054388;28;20229;-76
2021/11/26 05:10:55;;;;;;;35.10;18.50;;;;;;;;;;5055033;28;20223;-75
2021/11/26 05:13:29;;;;;;;35.03;18.87;;;;;;;;;;5038424;28;20298;-75
2021/11/26 05:15:55;;;;;;;30.67;18.07;;;;;;;;;;5035107;28;20223;-75
2021/11/26 05:18:26;;;;;;;32.57;18.23;;;;;;;;;;5051304;28;20230;-75
2021/11/26 05:20:54;;;;;;;30.20;17.57;;;;;;;;;;5052725;28;20241;-75
2021/11/26 05:23:23;;;;;;;30.00;18.63;;;;;;;;;;5046167;28;20928;-74
2021/11/26 05:25:51;;;;;;;31.73;18.07;;;;;;;;;;5017894;28;20711;-75
2021/11/26 05:28:17;;;;;;;35.53;19.83;;;;;;;;;;5036456;28;20219;-75
2021/11/26 05:30:43;;;;;;;37.13;18.47;;;;;;;;;;5072014;28;20241;-75
2021/11/26 05:33:08;;;;;;;33.80;17.73;;;;;;;;;;5054440;28;20218;-75
2021/11/26 05:35:36;;;;;;;35.43;18.07;;;;;;;;;;5034475;28;20268;-75
2021/11/26 05:38:05;;;;;;;32.97;19.13;;;;;;;;;;5033147;28;20214;-75
2021/11/26 05:40:31;;;;;;;35.53;18.73;;;;;;;;;;5054667;28;20211;-75
2021/11/26 05:43:02;;;;;;;34.00;18.00;;;;;;;;;;5020520;28;20225;-74
2021/11/26 05:45:32;;;;;;;33.93;17.67;;;;;;;;;;5050163;28;20281;-74
2021/11/26 05:47:59;;;;;;;31.13;18.23;;;;;;;;;;5051131;28;20666;-75
2021/11/26 05:50:30;;;;;;;32.13;18.00;;;;;;;;;;5030720;28;20215;-74
2021/11/26 05:52:59;;;;;;;35.87;19.00;;;;;;;;;;5021221;28;20700;-75
2021/11/26 05:55:31;;;;;;;35.63;17.97;;;;;;;;;;5054042;28;20222;-75
2021/11/26 05:57:57;;;;;;;37.30;17.63;;;;;;;;;;5034735;28;20223;-75
2021/11/26 06:00:23;;;;;;;32.23;16.93;;;;;;;;;;5051621;28;20227;-75
2021/11/26 06:02:52;;;;;;;35.30;17.40;;;;;;;;;;5034761;28;20276;-75
2021/11/26 06:05:17;;;;;;;34.57;17.87;;;;;;;;;;5050050;28;20231;-75
2021/11/26 06:07:43;;;;;;;32.60;15.60;;;;;;;;;;5059959;28;20215;-75
2021/11/26 06:10:13;;;;;;;29.43;16.57;;;;;;;;;;5037216;28;20211;-76
2021/11/26 06:12:45;;;;;;;33.17;16.60;;;;;;;;;;5050660;28;20268;-75
2021/11/26 06:15:14;;;;;;;25.17;15.30;;;;;;;;;;5033532;28;20329;-75
2021/11/26 06:17:44;;;;;;;32.00;17.50;;;;;;;;;;5071814;28;20319;-75
2021/11/26 06:20:12;;;;;;;29.30;16.60;;;;;;;;;;5057265;28;20215;-75
2021/11/26 06:22:41;;;;;;;28.33;16.40;;;;;;;;;;5019586;28;20280;-75
2021/11/26 06:25:07;;;;;;;30.63;15.77;;;;;;;;;;5052739;28;20254;-75
2021/11/26 06:27:33;;;;;;;35.60;16.30;;;;;;;;;;5023668;28;20294;-74
2021/11/26 06:29:58;;;;;;;35.87;18.27;;;;;;;;;;5037456;28;20313;-74
2021/11/26 06:32:25;;;;;;;27.97;16.53;;;;;;;;;;5021745;28;20226;-75
2021/11/26 06:34:53;;;;;;;25.90;16.47;;;;;;;;;;5042710;28;20222;-75
2021/11/26 06:37:26;;;;;;;32.63;17.07;;;;;;;;;;5022259;28;20233;-75
2021/11/26 06:39:56;;;;;;;28.97;14.70;;;;;;;;;;5024130;28;20215;-75
2021/11/26 06:42:22;;;;;;;29.23;15.43;;;;;;;;;;5030052;28;20220;-74
2021/11/26 06:44:52;;;;;;;28.57;15.10;;;;;;;;;;5034084;28;20216;-73
2021/11/26 06:47:23;;;;;;;27.73;16.37;;;;;;;;;;5038606;28;20246;-74
2021/11/26 06:49:51;;;;;;;27.87;16.07;;;;;;;;;;5036961;28;20218;-75
2021/11/26 06:52:19;;;;;;;25.07;14.33;;;;;;;;;;5038854;28;20246;-74
2021/11/26 06:54:45;;;;;;;26.40;15.97;;;;;;;;;;4993338;28;20243;-74
2021/11/26 06:57:13;;;;;;;26.37;13.73;;;;;;;;;;5028809;28;20215;-74
2021/11/26 06:59:39;;;;;;;37.73;16.17;;;;;;;;;;5046773;28;20298;-74
2021/11/26 07:02:05;;;;;;;31.70;16.10;;;;;;;;;;5034619;28;20601;-74
2021/11/26 07:04:34;;;;;;;27.73;15.97;;;;;;;;;;5049411;28;20233;-74
2021/11/26 07:07:00;;;;;;;27.27;15.50;;;;;;;;;;5047942;28;20231;-75
2021/11/26 07:09:28;;;;;;;24.93;14.37;;;;;;;;;;5031637;28;20219;-73
2021/11/26 07:11:54;;;;;;;31.30;16.53;;;;;;;;;;5030683;28;20234;-74
2021/11/26 07:14:20;;;;;;;30.97;15.93;;;;;;;;;;5047574;28;20720;-75
2021/11/26 07:16:45;;;;;;;30.43;16.37;;;;;;;;;;5051547;28;20222;-75
2021/11/26 07:19:14;;;;;;;34.23;16.77;;;;;;;;;;5028499;28;20238;-75
2021/11/26 07:21:44;;;;;;;28.77;16.50;;;;;;;;;;5018788;28;20215;-74
2021/11/26 07:24:12;;;;;;;26.50;15.73;;;;;;;;;;5047608;28;20211;-74
2021/11/26 07:26:38;;;;;;;34.93;16.77;;;;;;;;;;5018015;28;20211;-75
2021/11/26 07:29:04;;;;;;;31.37;16.27;;;;;;;;;;5022521;28;20290;-75
2021/11/26 07:31:34;;;;;;;36.67;17.47;;;;;;;;;;5059469;28;20288;-74
2021/11/26 07:34:00;;;;;;;37.60;17.57;;;;;;;;;;5057517;28;20695;-75
2021/11/26 07:36:29;;;;;;;36.40;18.20;;;;;;;;;;5027634;28;20770;-75
2021/11/26 07:38:56;;;;;;;36.20;16.70;;;;;;;;;;5018478;28;20702;-75
2021/11/26 07:41:22;;;;;;;39.03;19.27;;;;;;;;;;5037490;28;20880;-74
2021/11/26 07:43:50;;;;;;;38.03;19.20;;;;;;;;;;5030743;28;20687;-76
2021/11/26 07:46:18;;;;;;;34.50;18.00;;;;;;;;;;5026428;28;20661;-74
2021/11/26 07:48:46;;;;;;;40.67;20.10;;;;;;;;;;5008640;28;20809;-74
2021/11/26 07:51:16;;;;;;;38.40;19.33;;;;;;;;;;5022802;28;20212;-74
2021/11/26 07:53:42;;;;;;;42.57;20.57;;;;;;;;;;5032108;28;20215;-76
2021/11/26 07:56:09;;;;;;;39.47;20.80;;;;;;;;;;5051977;28;20275;-75
2021/11/26 07:58:39;;;;;;;41.37;20.30;;;;;;;;;;5048246;28;20231;-75
2021/11/26 08:01:07;;;;;;;41.93;20.13;;;;;;;;;;5028904;28;20219;-75
2021/11/26 08:03:35;;;;;;;38.93;19.00;;;;;;;;;;5027302;28;20219;-74
2021/11/26 08:06:03;;;;;;;43.87;21.43;;;;;;;;;;5030409;28;20220;-74
2021/11/26 08:08:33;;;;;;;42.47;19.70;;;;;;;;;;5029721;28;20593;-73
2021/11/26 08:11:02;;;;;;;46.90;22.03;;;;;;;;;;5052873;28;20597;-73
2021/11/26 08:13:30;;;;;;;39.33;20.40;;;;;;;;;;5030286;28;20250;-74
2021/11/26 08:15:58;;;;;;;48.60;21.20;;;;;;;;;;5039331;28;20277;-73
2021/11/26 08:18:26;;;;;;;45.57;21.63;;;;;;;;;;5047054;28;20232;-76
2021/11/26 08:20:51;;;;;;;50.43;22.23;;;;;;;;;;5020729;28;20211;-75
2021/11/26 08:23:18;;;;;;;50.97;23.07;;;;;;;;;;5031996;28;20223;-74
2021/11/26 08:25:44;;;;;;;49.30;23.00;;;;;;;;;;5063634;28;20733;-75
2021/11/26 08:28:12;;;;;;;53.70;23.97;;;;;;;;;;5050468;28;20228;-74
2021/11/26 08:30:40;;;;;;;50.20;23.43;;;;;;;;;;5016720;28;20219;-75
2021/11/26 08:33:10;;;;;;;55.20;24.57;;;;;;;;;;5055125;28;20242;-75
2021/11/26 08:35:38;;;;;;;52.57;23.93;;;;;;;;;;5030009;28;20211;-74
2021/11/26 08:38:04;;;;;;;55.60;24.30;;;;;;;;;;5026656;28;20705;-74
2021/11/26 08:40:34;;;;;;;57.03;25.33;;;;;;;;;;5016759;28;20575;-74
2021/11/26 08:43:04;;;;;;;49.63;23.40;;;;;;;;;;5011912;28;20607;-75
2021/11/26 08:45:33;;;;;;;56.10;24.73;;;;;;;;;;5047230;28;20220;-74
2021/11/26 08:48:00;;;;;;;55.00;25.90;;;;;;;;;;5046770;28;20581;-74
2021/11/26 08:50:28;;;;;;;46.57;23.70;;;;;;;;;;5026132;28;20216;-76
2021/11/26 08:52:54;;;;;;;51.47;23.87;;;;;;;;;;5045451;28;20243;-76
2021/11/26 08:55:22;;;;;;;51.37;24.13;;;;;;;;;;5015332;28;20222;-74
2021/11/26 08:57:53;;;;;;;47.27;23.67;;;;;;;;;;5025719;28;20719;-74
2021/11/26 09:00:26;;;;;;;52.33;24.40;;;;;;;;;;5047219;28;20231;-74
2021/11/26 09:02:54;;;;;;;46.17;23.77;;;;;;;;;;5044950;28;20227;-74
2021/11/26 09:05:20;;;;;;;49.30;23.87;;;;;;;;;;4997419;28;20215;-75
2021/11/26 09:07:48;;;;;;;48.63;24.27;;;;;;;;;;5031596;28;20222;-76
2021/11/26 09:10:14;;;;;;;50.47;23.33;;;;;;;;;;5011810;28;20204;-74
2021/11/26 09:12:40;;;;;;;51.63;24.00;;;;;;;;;;5021200;28;20215;-74
2021/11/26 09:15:12;;;;;;;51.40;24.63;;;;;;;;;;5024736;28;20766;-73
2021/11/26 09:17:45;;;;;;;49.00;23.23;;;;;;;;;;5029591;28;20257;-73
2021/11/26 09:20:15;;;;;;;44.63;21.57;;;;;;;;;;5052664;28;20273;-74
2021/11/26 09:22:43;;;;;;;51.30;24.47;;;;;;;;;;5019259;28;20305;-73
2021/11/26 09:25:09;;;;;;;50.30;23.60;;;;;;;;;;5048769;28;20220;-75
2021/11/26 09:27:34;;;;;;;47.93;22.63;;;;;;;;;;5028198;28;20214;-75
2021/11/26 09:30:01;;;;;;;49.27;23.87;;;;;;;;;;5041684;28;20228;-73
2021/11/26 09:32:28;;;;;;;44.60;22.57;;;;;;;;;;5026381;28;20651;-73
2021/11/26 09:34:56;;;;;;;44.47;23.23;;;;;;;;;;5034732;28;20207;-73
2021/11/26 09:37:24;;;;;;;49.37;22.60;;;;;;;;;;5042964;28;20274;-75
2021/11/26 09:39:53;;;;;;;48.70;22.70;;;;;;;;;;5056511;28;20211;-74
2021/11/26 09:42:19;;;;;;;47.40;22.70;;;;;;;;;;5032494;28;20243;-74
2021/11/26 09:44:48;;;;;;;45.70;22.73;;;;;;;;;;5058553;28;20219;-73
2021/11/26 09:47:14;;;;;;;42.37;21.97;;;;;;;;;;5030745;28;20223;-74
2021/11/26 09:49:44;;;;;;;41.97;21.70;;;;;;;;;;5052627;28;20695;-74
2021/11/26 09:52:14;;;;;;;45.90;21.90;;;;;;;;;;5031946;28;20597;-74
2021/11/26 09:54:45;;;;;;;45.37;22.37;;;;;;;;;;5046870;28;20215;-75
2021/11/26 09:57:14;;;;;;;38.97;19.97;;;;;;;;;;5032948;28;20237;-74
2021/11/26 09:59:40;;;;;;;37.33;20.00;;;;;;;;;;5031122;28;20222;-74
2021/11/26 10:02:13;;;;;;;41.57;22.20;;;;;;;;;;5031923;28;20211;-74
2021/11/26 10:04:41;;;;;;;43.50;21.47;;;;;;;;;;5031426;28;20223;-74
2021/11/26 10:07:12;;;;;;;37.87;20.23;;;;;;;;;;5031088;28;20272;-74
2021/11/26 10:09:38;;;;;;;35.83;20.53;;;;;;;;;;5029296;28;20264;-76
2021/11/26 10:12:14;;;;;;;41.40;21.33;;;;;;;;;;5036946;28;20224;-74
2021/11/26 10:14:44;;;;;;;38.20;20.03;;;;;;;;;;5032283;28;20592;-74
2021/11/26 10:17:16;;;;;;;38.93;20.90;;;;;;;;;;5029807;28;20224;-73
2021/11/26 10:19:51;;;;;;;37.13;19.63;;;;;;;;;;5019961;28;20210;-73
2021/11/26 10:22:24;;;;;;;37.20;18.87;;;;;;;;;;5042442;28;20275;-75
2021/11/26 10:24:59;;;;;;;39.33;19.90;;;;;;;;;;5048046;28;20216;-73
2021/11/26 10:27:50;;;;;;;32.60;17.47;;;;;;;;;;5018278;28;20797;-73
2021/11/26 10:30:28;;;;;;;31.73;17.40;;;;;;;;;;5026204;28;20216;-73
2021/11/26 10:33:01;;;;;;;33.53;19.23;;;;;;;;;;5027804;28;20222;-73
2021/11/26 10:35:33;;;;;;;33.10;17.73;;;;;;;;;;5035491;28;20608;-74
2021/11/26 10:38:06;;;;;;;31.80;18.17;;;;;;;;;;5007585;28;20303;-73
2021/11/26 10:40:38;;;;;;;33.87;17.53;;;;;;;;;;5055579;28;20213;-74
2021/11/26 10:43:06;;;;;;;31.57;17.37;;;;;;;;;;5041060;28;20656;-73
2021/11/26 10:51:04;;;;;;;30.00;16.10;;;;;;;;;;5044285;28;20725;-74
2021/11/26 10:59:10;;;;;;;28.23;14.67;;;;;;;;;;5064718;28;20222;-74
2021/11/26 11:01:48;;;;;;;26.43;14.83;;;;;;;;;;5048270;28;20293;-74
2021/11/26 11:04:20;;;;;;;26.50;15.20;;;;;;;;;;5044069;28;20245;-74
2021/11/26 11:07:02;;;;;;;21.90;12.80;;;;;;;;;;5029520;28;20219;-74
2021/11/26 11:09:54;;;;;;;24.87;13.47;;;;;;;;;;5064263;28;20229;-74
2021/11/26 11:12:36;;;;;;;20.67;12.93;;;;;;;;;;5030885;28;20242;-73
2021/11/26 11:15:07;;;;;;;22.67;12.77;;;;;;;;;;5032127;28;21532;-75
2021/11/26 11:17:33;;;;;;;16.23;11.53;;;;;;;;;;5047448;28;21330;-75
2021/11/26 11:20:10;;;;;;;18.93;12.03;;;;;;;;;;5032815;28;20314;-75
2021/11/26 11:22:36;;;;;;;19.73;11.90;;;;;;;;;;5050313;28;20345;-74
2021/11/26 11:25:05;;;;;;;17.07;10.87;;;;;;;;;;5031690;28;20223;-74
2021/11/26 11:27:31;;;;;;;14.77;10.83;;;;;;;;;;5067277;28;20316;-74
2021/11/26 11:29:57;;;;;;;17.53;9.97;;;;;;;;;;5033429;28;20226;-74
2021/11/26 11:32:27;;;;;;;15.63;10.53;;;;;;;;;;5032503;28;20223;-75
2021/11/26 11:34:53;;;;;;;18.77;10.60;;;;;;;;;;5049705;28;20360;-75
2021/11/26 11:37:28;;;;;;;16.10;10.57;;;;;;;;;;5030388;28;20655;-76
2021/11/26 11:39:54;;;;;;;16.27;10.53;;;;;;;;;;5064292;28;20222;-75
2021/11/26 11:42:33;;;;;;;16.13;10.53;;;;;;;;;;5062681;28;20246;-73
2021/11/26 11:45:15;;;;;;;14.20;9.40;;;;;;;;;;5048704;28;20326;-74
2021/11/26 11:47:54;;;;;;;15.30;9.77;;;;;;;;;;5058485;28;20215;-74
2021/11/26 11:50:25;;;;;;;12.87;9.50;;;;;;;;;;5047023;28;20242;-74
2021/11/26 11:53:00;;;;;;;12.23;9.30;;;;;;;;;;5028972;28;20223;-76
2021/11/26 11:55:39;;;;;;;12.93;9.30;;;;;;;;;;5045163;28;20305;-75
2021/11/26 11:58:18;;;;;;;14.67;9.47;;;;;;;;;;5008336;28;20227;-73
2021/11/26 12:00:47;;;;;;;12.67;8.70;;;;;;;;;;5049359;28;20223;-74
2021/11/26 12:03:14;;;;;;;11.60;8.30;;;;;;;;;;5027465;28;20224;-75
2021/11/26 12:05:53;;;;;;;12.03;8.47;;;;;;;;;;5020738;28;20218;-74
2021/11/26 12:08:21;;;;;;;11.77;8.17;;;;;;;;;;5053779;28;20291;-76
2021/11/26 12:10:51;;;;;;;12.33;7.90;;;;;;;;;;5029750;28;20203;-76
2021/11/26 12:13:27;;;;;;;11.97;8.40;;;;;;;;;;5029724;28;20215;-76
2021/11/26 12:16:08;;;;;;;12.50;8.30;;;;;;;;;;5025366;28;20226;-74
2021/11/26 12:18:48;;;;;;;10.43;8.03;;;;;;;;;;5033389;28;20226;-72
2021/11/26 12:21:22;;;;;;;11.73;7.83;;;;;;;;;;5035359;28;20599;-74
2021/11/26 12:24:08;;;;;;;11.43;8.03;;;;;;;;;;5030335;28;20207;-74
2021/11/26 12:26:55;;;;;;;10.40;8.00;;;;;;;;;;5050076;28;20219;-74
2021/11/26 12:29:37;;;;;;;10.97;7.70;;;;;;;;;;5032011;28;20210;-73
2021/11/26 12:32:14;;;;;;;11.17;8.00;;;;;;;;;;5056223;28;20273;-73
2021/11/26 12:34:43;;;;;;;10.03;7.77;;;;;;;;;;5044580;28;20298;-74
2021/11/26 12:37:23;;;;;;;9.30;7.37;;;;;;;;;;5063054;28;20222;-74
2021/11/26 12:39:49;;;;;;;10.73;7.03;;;;;;;;;;5043230;28;20898;-74
2021/11/26 12:42:18;;;;;;;8.50;7.20;;;;;;;;;;5043893;28;20218;-73
2021/11/26 12:44:58;;;;;;;11.33;8.47;;;;;;;;;;5028975;28;20224;-73
2021/11/26 12:47:37;;;;;;;8.07;6.20;;;;;;;;;;5044730;28;20304;-72
2021/11/26 12:53:06;;;;;;;9.47;7.23;;;;;;;;;;5038098;28;20226;-73
2021/11/26 12:55:35;;;;;;;7.63;6.10;;;;;;;;;;5065513;28;20261;-72
2021/11/26 12:58:03;;;;;;;8.60;6.50;;;;;;;;;;5043166;28;20215;-73
2021/11/26 13:00:29;;;;;;;7.77;5.73;;;;;;;;;;5065344;28;20353;-73
2021/11/26 13:03:10;;;;;;;8.00;6.10;;;;;;;;;;5048795;28;20258;-74
2021/11/26 13:05:38;;;;;;;9.60;5.97;;;;;;;;;;5035727;28;20207;-74
2021/11/26 13:08:14;;;;;;;6.90;5.40;;;;;;;;;;5069047;28;20214;-75
2021/11/26 13:10:47;;;;;;;6.73;4.87;;;;;;;;;;5038566;28;20271;-74
2021/11/26 13:13:16;;;;;;;6.30;4.77;;;;;;;;;;5067069;28;20600;-73
2021/11/26 13:15:43;;;;;;;6.60;4.63;;;;;;;;;;5063841;28;21625;-73
2021/11/26 13:18:11;;;;;;;5.67;4.50;;;;;;;;;;5029266;28;20227;-74
2021/11/26 13:20:44;;;;;;;6.90;4.37;;;;;;;;;;5070179;28;20233;-74
2021/11/26 13:23:16;;;;;;;8.77;4.70;;;;;;;;;;5066092;28;20719;-75
2021/11/26 13:25:49;;;;;;;6.07;4.10;;;;;;;;;;5067649;28;20238;-74
2021/11/26 13:28:23;;;;;;;4.80;4.00;;;;;;;;;;5054684;28;20299;-73
2021/11/26 13:30:51;;;;;;;6.87;4.13;;;;;;;;;;5040311;28;20223;-74
2021/11/26 13:33:26;;;;;;;4.90;3.90;;;;;;;;;;5050130;28;20242;-76
2021/11/26 13:35:53;;;;;;;5.27;3.90;;;;;;;;;;5061400;28;20227;-75
2021/11/26 13:38:26;;;;;;;4.67;3.90;;;;;;;;;;5042152;28;20223;-75
2021/11/26 13:40:58;;;;;;;4.33;3.50;;;;;;;;;;5033725;28;20222;-74
2021/11/26 13:43:29;;;;;;;6.13;3.40;;;;;;;;;;5067666;28;20223;-75
2021/11/26 13:46:03;;;;;;;4.33;3.50;;;;;;;;;;5067938;28;20595;-74
2021/11/26 13:48:35;;;;;;;3.67;3.33;;;;;;;;;;5053888;28;20214;-73
2021/11/26 13:51:04;;;;;;;3.33;3.03;;;;;;;;;;5045769;28;20592;-73
2021/11/26 13:53:37;;;;;;;5.77;5.23;;;;;;;;;;5067077;28;20623;-74
2021/11/26 13:56:03;;;;;;;5.37;4.87;;;;;;;;;;5044547;28;20281;-74
2021/11/26 13:58:32;;;;;;;4.47;3.33;;;;;;;;;;5065543;28;20751;-73
2021/11/26 14:01:00;;;;;;;3.97;3.53;;;;;;;;;;5048496;28;20218;-73
2021/11/26 14:03:35;;;;;;;3.23;2.80;;;;;;;;;;5034529;28;20222;-73
2021/11/26 14:06:33;;;;;;;3.27;2.63;;;;;;;;;;5037111;28;20222;-75
2021/11/26 14:09:07;;;;;;;4.90;3.30;;;;;;;;;;5070480;28;20219;-73
2021/11/26 14:11:42;;;;;;;6.37;2.93;;;;;;;;;;5062807;28;20226;-72
2021/11/26 14:14:09;;;;;;;8.20;3.80;;;;;;;;;;5051292;28;20953;-76
2021/11/26 14:16:50;;;;;;;4.43;3.43;;;;;;;;;;5065864;28;20222;-73
2021/11/26 14:19:26;;;;;;;5.13;3.17;;;;;;;;;;5051378;28;20239;-74
2021/11/26 14:21:55;;;;;;;6.03;3.60;;;;;;;;;;5068834;28;20257;-75
2021/11/26 14:24:21;;;;;;;4.10;3.30;;;;;;;;;;5065581;28;20214;-75
2021/11/26 14:26:55;;;;;;;5.47;3.93;;;;;;;;;;5031640;28;20211;-73
2021/11/26 14:29:21;;;;;;;4.40;3.77;;;;;;;;;;5052211;28;20217;-73
2021/11/26 14:31:50;;;;;;;6.93;4.10;;;;;;;;;;5075289;28;20212;-77
2021/11/26 14:34:18;;;;;;;5.27;3.97;;;;;;;;;;5049959;28;20214;-76
2021/11/26 14:36:46;;;;;;;6.93;4.27;;;;;;;;;;5046409;28;20250;-74
2021/11/26 14:39:14;;;;;;;7.20;5.03;;;;;;;;;;5032209;28;20219;-75
2021/11/26 14:41:43;;;;;;;6.30;4.40;;;;;;;;;;5041787;28;20703;-74
2021/11/26 14:44:14;;;;;;;5.67;4.77;;;;;;;;;;5067622;28;20222;-75
2021/11/26 14:46:56;;;;;;;5.63;4.60;;;;;;;;;;5014056;28;20214;-74
2021/11/26 14:49:46;;;;;;;6.57;4.77;;;;;;;;;;5050630;28;20227;-73